sensor_id;sensor_type;location;lat;lon;timestamp;P1;durP1;ratioP1;P2;durP2;ratioP2
8704;SDS011;4389;41.932;25.904;2023-04-22T00:01:06;10.87;;;9.73;;
8704;SDS011;4389;41.932;25.904;2023-04-22T00:03:33;9.33;;;5.50;;
8704;SDS011;4389;41.932;25.904;2023-04-22T00:06:00;6.27;;;5.67;;
8704;SDS011;4389;41.932;25.904;2023-04-22T00:08:28;11.13;;;5.73;;
8704;SDS011;4389;41.932;25.904;2023-04-22T00:10:55;9.97;;;6.03;;
8704;SDS011;4389;41.932;25.904;2023-04-22T00:13:22;7.80;;;4.90;;
8704;SDS011;4389;41.932;25.904;2023-04-22T00:15:49;8.70;;;5.07;;
8704;SDS011;4389;41.932;25.904;2023-04-22T00:18:15;7.60;;;5.13;;
8704;SDS011;4389;41.932;25.904;2023-04-22T00:20:43;7.10;;;5.63;;
8704;SDS011;4389;41.932;25.904;2023-04-22T00:23:10;7.73;;;5.63;;
8704;SDS011;4389;41.932;25.904;2023-04-22T00:25:39;9.90;;;4.73;;
8704;SDS011;4389;41.932;25.904;2023-04-22T00:28:06;6.10;;;4.67;;
8704;SDS011;4389;41.932;25.904;2023-04-22T00:30:33;6.00;;;4.63;;
8704;SDS011;4389;41.932;25.904;2023-04-22T00:33:00;5.67;;;4.87;;
8704;SDS011;4389;41.932;25.904;2023-04-22T00:35:27;9.63;;;5.30;;
8704;SDS011;4389;41.932;25.904;2023-04-22T00:37:54;7.30;;;5.07;;
8704;SDS011;4389;41.932;25.904;2023-04-22T00:40:21;7.73;;;4.67;;
8704;SDS011;4389;41.932;25.904;2023-04-22T00:42:49;8.37;;;5.50;;
8704;SDS011;4389;41.932;25.904;2023-04-22T00:45:16;6.17;;;5.57;;
8704;SDS011;4389;41.932;25.904;2023-04-22T00:47:45;12.20;;;7.43;;
8704;SDS011;4389;41.932;25.904;2023-04-22T00:50:13;8.07;;;5.90;;
8704;SDS011;4389;41.932;25.904;2023-04-22T00:52:40;10.33;;;5.97;;
8704;SDS011;4389;41.932;25.904;2023-04-22T00:55:07;7.03;;;5.70;;
8704;SDS011;4389;41.932;25.904;2023-04-22T00:57:34;8.93;;;5.27;;
8704;SDS011;4389;41.932;25.904;2023-04-22T01:00:03;6.13;;;5.03;;
8704;SDS011;4389;41.932;25.904;2023-04-22T01:02:30;7.67;;;5.53;;
8704;SDS011;4389;41.932;25.904;2023-04-22T01:04:57;7.47;;;5.40;;
8704;SDS011;4389;41.932;25.904;2023-04-22T01:07:25;8.93;;;7.90;;
8704;SDS011;4389;41.932;25.904;2023-04-22T01:09:52;8.10;;;5.43;;
8704;SDS011;4389;41.932;25.904;2023-04-22T01:12:18;6.20;;;5.20;;
8704;SDS011;4389;41.932;25.904;2023-04-22T01:14:46;9.07;;;5.83;;
8704;SDS011;4389;41.932;25.904;2023-04-22T01:17:15;8.07;;;5.50;;
8704;SDS011;4389;41.932;25.904;2023-04-22T01:19:43;6.57;;;5.00;;
8704;SDS011;4389;41.932;25.904;2023-04-22T01:22:11;10.13;;;4.40;;
8704;SDS011;4389;41.932;25.904;2023-04-22T01:24:40;8.87;;;5.23;;
8704;SDS011;4389;41.932;25.904;2023-04-22T01:27:08;4.60;;;4.20;;
8704;SDS011;4389;41.932;25.904;2023-04-22T01:29:35;7.27;;;5.10;;
8704;SDS011;4389;41.932;25.904;2023-04-22T01:32:02;8.10;;;4.97;;
8704;SDS011;4389;41.932;25.904;2023-04-22T01:34:30;7.17;;;6.47;;
8704;SDS011;4389;41.932;25.904;2023-04-22T01:36:57;8.60;;;6.13;;
8704;SDS011;4389;41.932;25.904;2023-04-22T01:39:24;9.20;;;6.67;;
8704;SDS011;4389;41.932;25.904;2023-04-22T01:41:52;6.63;;;6.03;;
8704;SDS011;4389;41.932;25.904;2023-04-22T01:44:20;9.97;;;6.07;;
8704;SDS011;4389;41.932;25.904;2023-04-22T01:46:47;6.43;;;5.83;;
8704;SDS011;4389;41.932;25.904;2023-04-22T01:49:14;11.33;;;6.73;;
8704;SDS011;4389;41.932;25.904;2023-04-22T01:51:41;9.63;;;6.10;;
8704;SDS011;4389;41.932;25.904;2023-04-22T01:54:08;6.77;;;5.73;;
8704;SDS011;4389;41.932;25.904;2023-04-22T01:56:35;7.93;;;5.73;;
8704;SDS011;4389;41.932;25.904;2023-04-22T01:59:06;6.77;;;5.83;;
8704;SDS011;4389;41.932;25.904;2023-04-22T02:01:33;8.10;;;6.50;;
8704;SDS011;4389;41.932;25.904;2023-04-22T02:03:59;8.13;;;5.93;;
8704;SDS011;4389;41.932;25.904;2023-04-22T02:06:26;14.67;;;6.13;;
8704;SDS011;4389;41.932;25.904;2023-04-22T02:08:53;6.63;;;6.03;;
8704;SDS011;4389;41.932;25.904;2023-04-22T02:11:20;10.80;;;6.03;;
8704;SDS011;4389;41.932;25.904;2023-04-22T02:13:46;8.97;;;6.70;;
8704;SDS011;4389;41.932;25.904;2023-04-22T02:16:15;6.50;;;5.83;;
8704;SDS011;4389;41.932;25.904;2023-04-22T02:18:42;7.13;;;6.23;;
8704;SDS011;4389;41.932;25.904;2023-04-22T02:21:08;5.90;;;5.30;;
8704;SDS011;4389;41.932;25.904;2023-04-22T02:23:35;5.97;;;5.13;;
8704;SDS011;4389;41.932;25.904;2023-04-22T02:26:04;23.27;;;19.30;;
8704;SDS011;4389;41.932;25.904;2023-04-22T02:28:31;16.03;;;12.83;;
8704;SDS011;4389;41.932;25.904;2023-04-22T02:30:58;10.97;;;10.07;;
8704;SDS011;4389;41.932;25.904;2023-04-22T02:33:26;28.60;;;26.10;;
8704;SDS011;4389;41.932;25.904;2023-04-22T02:35:53;26.83;;;24.57;;
8704;SDS011;4389;41.932;25.904;2023-04-22T02:38:20;16.23;;;9.37;;
8704;SDS011;4389;41.932;25.904;2023-04-22T02:40:46;6.87;;;6.17;;
8704;SDS011;4389;41.932;25.904;2023-04-22T02:43:13;6.20;;;5.60;;
8704;SDS011;4389;41.932;25.904;2023-04-22T02:45:40;10.23;;;5.30;;
8704;SDS011;4389;41.932;25.904;2023-04-22T02:48:07;5.80;;;5.30;;
8704;SDS011;4389;41.932;25.904;2023-04-22T02:50:35;6.13;;;5.50;;
8704;SDS011;4389;41.932;25.904;2023-04-22T02:53:02;5.70;;;5.20;;
8704;SDS011;4389;41.932;25.904;2023-04-22T02:55:29;6.93;;;5.57;;
8704;SDS011;4389;41.932;25.904;2023-04-22T02:57:55;5.97;;;5.47;;
8704;SDS011;4389;41.932;25.904;2023-04-22T03:00:22;10.77;;;7.27;;
8704;SDS011;4389;41.932;25.904;2023-04-22T03:02:49;7.43;;;6.73;;
8704;SDS011;4389;41.932;25.904;2023-04-22T03:05:16;12.97;;;8.87;;
8704;SDS011;4389;41.932;25.904;2023-04-22T03:07:44;41.57;;;11.77;;
8704;SDS011;4389;41.932;25.904;2023-04-22T03:10:11;15.77;;;11.80;;
8704;SDS011;4389;41.932;25.904;2023-04-22T03:12:38;25.67;;;12.33;;
8704;SDS011;4389;41.932;25.904;2023-04-22T03:15:05;27.47;;;10.20;;
8704;SDS011;4389;41.932;25.904;2023-04-22T03:17:33;16.23;;;9.70;;
8704;SDS011;4389;41.932;25.904;2023-04-22T03:20:00;30.07;;;11.33;;
8704;SDS011;4389;41.932;25.904;2023-04-22T03:22:27;26.17;;;9.80;;
8704;SDS011;4389;41.932;25.904;2023-04-22T03:24:55;31.63;;;8.93;;
8704;SDS011;4389;41.932;25.904;2023-04-22T03:27:21;23.60;;;9.57;;
8704;SDS011;4389;41.932;25.904;2023-04-22T03:29:48;15.07;;;10.57;;
8704;SDS011;4389;41.932;25.904;2023-04-22T03:32:15;26.43;;;9.77;;
8704;SDS011;4389;41.932;25.904;2023-04-22T03:34:42;19.40;;;9.63;;
8704;SDS011;4389;41.932;25.904;2023-04-22T03:37:09;10.27;;;9.27;;
8704;SDS011;4389;41.932;25.904;2023-04-22T03:39:35;9.87;;;8.87;;
8704;SDS011;4389;41.932;25.904;2023-04-22T03:42:04;10.43;;;9.37;;
8704;SDS011;4389;41.932;25.904;2023-04-22T03:44:30;11.67;;;10.13;;
8704;SDS011;4389;41.932;25.904;2023-04-22T03:46:57;13.13;;;8.97;;
8704;SDS011;4389;41.932;25.904;2023-04-22T03:49:24;10.30;;;8.93;;
8704;SDS011;4389;41.932;25.904;2023-04-22T03:51:51;10.80;;;9.77;;
8704;SDS011;4389;41.932;25.904;2023-04-22T03:54:18;11.80;;;8.97;;
8704;SDS011;4389;41.932;25.904;2023-04-22T03:56:45;14.43;;;11.23;;
8704;SDS011;4389;41.932;25.904;2023-04-22T03:59:13;9.43;;;8.37;;
8704;SDS011;4389;41.932;25.904;2023-04-22T04:01:40;13.77;;;7.87;;
8704;SDS011;4389;41.932;25.904;2023-04-22T04:04:06;14.57;;;9.53;;
8704;SDS011;4389;41.932;25.904;2023-04-22T04:06:33;11.67;;;9.93;;
8704;SDS011;4389;41.932;25.904;2023-04-22T04:09:01;13.23;;;9.60;;
8704;SDS011;4389;41.932;25.904;2023-04-22T04:11:28;11.47;;;10.27;;
8704;SDS011;4389;41.932;25.904;2023-04-22T04:13:55;10.13;;;9.13;;
8704;SDS011;4389;41.932;25.904;2023-04-22T04:16:24;12.37;;;6.90;;
8704;SDS011;4389;41.932;25.904;2023-04-22T04:18:50;11.13;;;8.07;;
8704;SDS011;4389;41.932;25.904;2023-04-22T04:21:17;14.20;;;7.47;;
8704;SDS011;4389;41.932;25.904;2023-04-22T04:23:45;14.67;;;7.60;;
8704;SDS011;4389;41.932;25.904;2023-04-22T04:26:12;17.23;;;7.03;;
8704;SDS011;4389;41.932;25.904;2023-04-22T04:28:39;10.23;;;6.93;;
8704;SDS011;4389;41.932;25.904;2023-04-22T04:31:06;12.83;;;7.17;;
8704;SDS011;4389;41.932;25.904;2023-04-22T04:33:34;7.70;;;6.30;;
8704;SDS011;4389;41.932;25.904;2023-04-22T04:36:02;6.13;;;5.53;;
8704;SDS011;4389;41.932;25.904;2023-04-22T04:38:29;5.67;;;5.17;;
8704;SDS011;4389;41.932;25.904;2023-04-22T04:40:55;14.17;;;9.60;;
8704;SDS011;4389;41.932;25.904;2023-04-22T04:43:22;7.83;;;7.00;;
8704;SDS011;4389;41.932;25.904;2023-04-22T04:45:51;8.40;;;5.70;;
8704;SDS011;4389;41.932;25.904;2023-04-22T04:48:18;7.47;;;4.70;;
8704;SDS011;4389;41.932;25.904;2023-04-22T04:50:46;6.67;;;5.17;;
8704;SDS011;4389;41.932;25.904;2023-04-22T04:53:14;5.33;;;4.83;;
8704;SDS011;4389;41.932;25.904;2023-04-22T04:55:41;4.70;;;4.30;;
8704;SDS011;4389;41.932;25.904;2023-04-22T04:58:08;6.50;;;5.53;;
8704;SDS011;4389;41.932;25.904;2023-04-22T05:00:35;6.70;;;5.70;;
8704;SDS011;4389;41.932;25.904;2023-04-22T05:03:01;6.80;;;6.20;;
8704;SDS011;4389;41.932;25.904;2023-04-22T05:05:28;7.57;;;6.87;;
8704;SDS011;4389;41.932;25.904;2023-04-22T05:07:56;8.77;;;6.87;;
8704;SDS011;4389;41.932;25.904;2023-04-22T05:10:23;9.20;;;7.70;;
8704;SDS011;4389;41.932;25.904;2023-04-22T05:12:50;7.10;;;6.40;;
8704;SDS011;4389;41.932;25.904;2023-04-22T05:15:17;9.70;;;7.27;;
8704;SDS011;4389;41.932;25.904;2023-04-22T05:17:44;10.37;;;7.63;;
8704;SDS011;4389;41.932;25.904;2023-04-22T05:20:11;7.87;;;7.13;;
8704;SDS011;4389;41.932;25.904;2023-04-22T05:22:37;8.00;;;7.27;;
8704;SDS011;4389;41.932;25.904;2023-04-22T05:25:09;8.53;;;7.63;;
8704;SDS011;4389;41.932;25.904;2023-04-22T05:27:36;8.27;;;7.47;;
8704;SDS011;4389;41.932;25.904;2023-04-22T05:30:03;9.43;;;8.17;;
8704;SDS011;4389;41.932;25.904;2023-04-22T05:32:31;10.23;;;8.80;;
8704;SDS011;4389;41.932;25.904;2023-04-22T05:34:57;9.97;;;8.97;;
8704;SDS011;4389;41.932;25.904;2023-04-22T05:37:24;13.97;;;8.77;;
8704;SDS011;4389;41.932;25.904;2023-04-22T05:39:51;8.33;;;7.53;;
8704;SDS011;4389;41.932;25.904;2023-04-22T05:42:19;8.57;;;7.77;;
8704;SDS011;4389;41.932;25.904;2023-04-22T05:44:46;11.03;;;9.53;;
8704;SDS011;4389;41.932;25.904;2023-04-22T05:47:13;9.00;;;8.10;;
8704;SDS011;4389;41.932;25.904;2023-04-22T05:49:40;8.57;;;7.70;;
8704;SDS011;4389;41.932;25.904;2023-04-22T05:52:06;8.00;;;7.20;;
8704;SDS011;4389;41.932;25.904;2023-04-22T05:54:33;9.03;;;6.37;;
8704;SDS011;4389;41.932;25.904;2023-04-22T05:57:00;6.40;;;5.77;;
8704;SDS011;4389;41.932;25.904;2023-04-22T05:59:29;6.93;;;6.23;;
8704;SDS011;4389;41.932;25.904;2023-04-22T06:01:55;7.23;;;6.53;;
8704;SDS011;4389;41.932;25.904;2023-04-22T06:04:22;7.60;;;6.93;;
8704;SDS011;4389;41.932;25.904;2023-04-22T06:06:49;7.47;;;6.70;;
8704;SDS011;4389;41.932;25.904;2023-04-22T06:09:17;10.37;;;9.30;;
8704;SDS011;4389;41.932;25.904;2023-04-22T06:11:44;8.57;;;7.77;;
8704;SDS011;4389;41.932;25.904;2023-04-22T06:14:11;12.67;;;7.20;;
8704;SDS011;4389;41.932;25.904;2023-04-22T06:16:39;22.90;;;10.67;;
8704;SDS011;4389;41.932;25.904;2023-04-22T06:19:06;7.67;;;6.97;;
8704;SDS011;4389;41.932;25.904;2023-04-22T06:21:33;9.53;;;8.43;;
8704;SDS011;4389;41.932;25.904;2023-04-22T06:24:02;7.43;;;6.73;;
8704;SDS011;4389;41.932;25.904;2023-04-22T06:26:30;6.87;;;6.23;;
8704;SDS011;4389;41.932;25.904;2023-04-22T06:28:57;8.00;;;6.37;;
8704;SDS011;4389;41.932;25.904;2023-04-22T06:31:24;6.60;;;6.00;;
8704;SDS011;4389;41.932;25.904;2023-04-22T06:33:52;7.47;;;6.20;;
8704;SDS011;4389;41.932;25.904;2023-04-22T06:36:19;10.23;;;7.87;;
8704;SDS011;4389;41.932;25.904;2023-04-22T06:38:46;9.90;;;8.50;;
8704;SDS011;4389;41.932;25.904;2023-04-22T06:41:12;9.53;;;8.53;;
8704;SDS011;4389;41.932;25.904;2023-04-22T06:43:39;12.50;;;8.87;;
8704;SDS011;4389;41.932;25.904;2023-04-22T06:46:06;9.97;;;9.03;;
8704;SDS011;4389;41.932;25.904;2023-04-22T06:48:33;14.13;;;9.50;;
8704;SDS011;4389;41.932;25.904;2023-04-22T06:51:01;10.00;;;9.00;;
8704;SDS011;4389;41.932;25.904;2023-04-22T06:53:28;13.90;;;9.17;;
8704;SDS011;4389;41.932;25.904;2023-04-22T06:55:55;9.43;;;8.00;;
8704;SDS011;4389;41.932;25.904;2023-04-22T06:58:22;9.33;;;8.43;;
8704;SDS011;4389;41.932;25.904;2023-04-22T07:00:49;11.07;;;8.77;;
8704;SDS011;4389;41.932;25.904;2023-04-22T07:03:16;9.53;;;8.17;;
8704;SDS011;4389;41.932;25.904;2023-04-22T07:05:42;9.17;;;8.27;;
8704;SDS011;4389;41.932;25.904;2023-04-22T07:08:11;13.67;;;9.03;;
8704;SDS011;4389;41.932;25.904;2023-04-22T07:10:37;9.63;;;8.80;;
8704;SDS011;4389;41.932;25.904;2023-04-22T07:13:04;10.50;;;9.13;;
8704;SDS011;4389;41.932;25.904;2023-04-22T07:15:31;10.37;;;8.27;;
8704;SDS011;4389;41.932;25.904;2023-04-22T07:17:58;9.13;;;8.23;;
8704;SDS011;4389;41.932;25.904;2023-04-22T07:20:25;14.60;;;8.27;;
8704;SDS011;4389;41.932;25.904;2023-04-22T07:22:51;13.67;;;9.27;;
8704;SDS011;4389;41.932;25.904;2023-04-22T07:25:19;14.53;;;8.43;;
8704;SDS011;4389;41.932;25.904;2023-04-22T07:27:46;10.40;;;8.90;;
8704;SDS011;4389;41.932;25.904;2023-04-22T07:30:13;8.20;;;7.40;;
8704;SDS011;4389;41.932;25.904;2023-04-22T07:32:40;8.90;;;8.07;;
8704;SDS011;4389;41.932;25.904;2023-04-22T07:35:07;9.97;;;8.50;;
8704;SDS011;4389;41.932;25.904;2023-04-22T07:37:34;22.70;;;11.73;;
8704;SDS011;4389;41.932;25.904;2023-04-22T07:40:01;20.23;;;9.17;;
8704;SDS011;4389;41.932;25.904;2023-04-22T07:42:29;8.60;;;7.80;;
8704;SDS011;4389;41.932;25.904;2023-04-22T07:44:56;13.47;;;8.27;;
8704;SDS011;4389;41.932;25.904;2023-04-22T07:47:23;9.17;;;7.87;;
8704;SDS011;4389;41.932;25.904;2023-04-22T07:49:50;8.63;;;7.77;;
8704;SDS011;4389;41.932;25.904;2023-04-22T07:52:16;14.57;;;8.60;;
8704;SDS011;4389;41.932;25.904;2023-04-22T07:54:44;9.73;;;8.80;;
8704;SDS011;4389;41.932;25.904;2023-04-22T07:57:19;11.38;;;8.64;;
8704;SDS011;4389;41.932;25.904;2023-04-22T07:59:48;10.20;;;8.03;;
8704;SDS011;4389;41.932;25.904;2023-04-22T08:02:15;9.23;;;8.30;;
8704;SDS011;4389;41.932;25.904;2023-04-22T08:04:42;10.17;;;8.07;;
8704;SDS011;4389;41.932;25.904;2023-04-22T08:07:09;13.00;;;8.70;;
8704;SDS011;4389;41.932;25.904;2023-04-22T08:09:36;9.60;;;8.50;;
8704;SDS011;4389;41.932;25.904;2023-04-22T08:12:03;8.67;;;7.83;;
8704;SDS011;4389;41.932;25.904;2023-04-22T08:14:30;12.60;;;8.63;;
8704;SDS011;4389;41.932;25.904;2023-04-22T08:16:58;13.53;;;9.67;;
8704;SDS011;4389;41.932;25.904;2023-04-22T08:19:25;10.80;;;8.33;;
8704;SDS011;4389;41.932;25.904;2023-04-22T08:21:52;10.20;;;8.37;;
8704;SDS011;4389;41.932;25.904;2023-04-22T08:24:19;9.80;;;8.90;;
8704;SDS011;4389;41.932;25.904;2023-04-22T08:26:46;10.50;;;9.17;;
8704;SDS011;4389;41.932;25.904;2023-04-22T08:29:12;9.80;;;8.87;;
8704;SDS011;4389;41.932;25.904;2023-04-22T08:31:40;11.77;;;9.23;;
8704;SDS011;4389;41.932;25.904;2023-04-22T08:34:08;11.20;;;9.43;;
8704;SDS011;4389;41.932;25.904;2023-04-22T08:36:35;11.63;;;9.33;;
8704;SDS011;4389;41.932;25.904;2023-04-22T08:39:02;14.27;;;8.17;;
8704;SDS011;4389;41.932;25.904;2023-04-22T08:41:30;10.10;;;9.03;;
8704;SDS011;4389;41.932;25.904;2023-04-22T08:44:02;8.57;;;7.77;;
8704;SDS011;4389;41.932;25.904;2023-04-22T08:46:30;12.87;;;8.47;;
8704;SDS011;4389;41.932;25.904;2023-04-22T08:48:58;9.37;;;8.40;;
8704;SDS011;4389;41.932;25.904;2023-04-22T08:51:29;10.73;;;8.00;;
8704;SDS011;4389;41.932;25.904;2023-04-22T08:53:57;10.47;;;8.53;;
8704;SDS011;4389;41.932;25.904;2023-04-22T08:56:24;10.50;;;7.53;;
8704;SDS011;4389;41.932;25.904;2023-04-22T08:58:53;7.23;;;6.43;;
8704;SDS011;4389;41.932;25.904;2023-04-22T09:01:20;8.43;;;6.23;;
8704;SDS011;4389;41.932;25.904;2023-04-22T09:03:47;7.27;;;5.57;;
8704;SDS011;4389;41.932;25.904;2023-04-22T09:06:15;6.80;;;5.00;;
8704;SDS011;4389;41.932;25.904;2023-04-22T09:08:44;5.33;;;4.13;;
8704;SDS011;4389;41.932;25.904;2023-04-22T09:11:12;4.83;;;4.40;;
8704;SDS011;4389;41.932;25.904;2023-04-22T09:13:38;4.10;;;3.80;;
8704;SDS011;4389;41.932;25.904;2023-04-22T09:16:05;8.83;;;6.20;;
8704;SDS011;4389;41.932;25.904;2023-04-22T09:18:38;7.53;;;4.70;;
8704;SDS011;4389;41.932;25.904;2023-04-22T09:21:05;4.70;;;4.20;;
8704;SDS011;4389;41.932;25.904;2023-04-22T09:23:32;6.37;;;4.30;;
8704;SDS011;4389;41.932;25.904;2023-04-22T09:26:09;5.30;;;4.40;;
8704;SDS011;4389;41.932;25.904;2023-04-22T09:28:37;10.03;;;4.20;;
8704;SDS011;4389;41.932;25.904;2023-04-22T09:31:03;4.80;;;4.10;;
8704;SDS011;4389;41.932;25.904;2023-04-22T09:33:30;3.50;;;2.87;;
8704;SDS011;4389;41.932;25.904;2023-04-22T09:35:58;4.37;;;2.87;;
8704;SDS011;4389;41.932;25.904;2023-04-22T09:38:29;8.07;;;3.27;;
8704;SDS011;4389;41.932;25.904;2023-04-22T09:40:56;8.30;;;4.63;;
8704;SDS011;4389;41.932;25.904;2023-04-22T09:43:24;5.80;;;4.20;;
8704;SDS011;4389;41.932;25.904;2023-04-22T09:45:51;4.87;;;3.60;;
8704;SDS011;4389;41.932;25.904;2023-04-22T09:48:18;5.20;;;3.30;;
8704;SDS011;4389;41.932;25.904;2023-04-22T09:50:46;7.23;;;4.20;;
8704;SDS011;4389;41.932;25.904;2023-04-22T09:53:15;5.10;;;4.60;;
8704;SDS011;4389;41.932;25.904;2023-04-22T09:55:45;6.17;;;4.00;;
8704;SDS011;4389;41.932;25.904;2023-04-22T09:58:14;4.73;;;3.73;;
8704;SDS011;4389;41.932;25.904;2023-04-22T10:00:44;5.37;;;3.63;;
8704;SDS011;4389;41.932;25.904;2023-04-22T10:03:14;3.27;;;2.50;;
8704;SDS011;4389;41.932;25.904;2023-04-22T10:05:41;3.77;;;2.70;;
8704;SDS011;4389;41.932;25.904;2023-04-22T10:08:10;6.00;;;3.47;;
8704;SDS011;4389;41.932;25.904;2023-04-22T10:10:38;5.63;;;3.97;;
8704;SDS011;4389;41.932;25.904;2023-04-22T10:13:06;4.00;;;3.20;;
8704;SDS011;4389;41.932;25.904;2023-04-22T10:15:34;6.00;;;4.17;;
8704;SDS011;4389;41.932;25.904;2023-04-22T10:18:05;5.07;;;2.83;;
8704;SDS011;4389;41.932;25.904;2023-04-22T10:20:35;4.57;;;3.00;;
8704;SDS011;4389;41.932;25.904;2023-04-22T10:23:04;2.67;;;2.47;;
8704;SDS011;4389;41.932;25.904;2023-04-22T10:25:38;3.50;;;3.20;;
8704;SDS011;4389;41.932;25.904;2023-04-22T10:28:06;10.07;;;2.83;;
8704;SDS011;4389;41.932;25.904;2023-04-22T10:30:35;4.90;;;4.10;;
8704;SDS011;4389;41.932;25.904;2023-04-22T10:36:07;2.90;;;2.60;;
8704;SDS011;4389;41.932;25.904;2023-04-22T10:38:36;7.27;;;3.33;;
8704;SDS011;4389;41.932;25.904;2023-04-22T10:41:04;5.63;;;3.50;;
8704;SDS011;4389;41.932;25.904;2023-04-22T10:43:41;4.77;;;3.37;;
8704;SDS011;4389;41.932;25.904;2023-04-22T10:49:18;6.33;;;3.60;;
8704;SDS011;4389;41.932;25.904;2023-04-22T10:51:46;2.90;;;2.50;;
8704;SDS011;4389;41.932;25.904;2023-04-22T10:57:17;7.27;;;2.57;;
8704;SDS011;4389;41.932;25.904;2023-04-22T10:59:47;8.83;;;4.10;;
8704;SDS011;4389;41.932;25.904;2023-04-22T11:02:20;8.73;;;3.50;;
8704;SDS011;4389;41.932;25.904;2023-04-22T11:04:49;9.73;;;3.13;;
8704;SDS011;4389;41.932;25.904;2023-04-22T11:07:28;6.20;;;3.33;;
8704;SDS011;4389;41.932;25.904;2023-04-22T11:09:58;4.97;;;3.10;;
8704;SDS011;4389;41.932;25.904;2023-04-22T11:12:41;3.83;;;2.73;;
8704;SDS011;4389;41.932;25.904;2023-04-22T11:15:09;6.97;;;2.70;;
8704;SDS011;4389;41.932;25.904;2023-04-22T11:17:38;5.67;;;3.50;;
8704;SDS011;4389;41.932;25.904;2023-04-22T11:20:09;8.13;;;2.80;;
8704;SDS011;4389;41.932;25.904;2023-04-22T11:22:40;4.27;;;3.33;;
8704;SDS011;4389;41.932;25.904;2023-04-22T11:25:07;4.90;;;2.70;;
8704;SDS011;4389;41.932;25.904;2023-04-22T11:27:35;6.33;;;2.90;;
8704;SDS011;4389;41.932;25.904;2023-04-22T11:30:02;7.97;;;3.30;;
8704;SDS011;4389;41.932;25.904;2023-04-22T11:32:31;9.90;;;3.70;;
8704;SDS011;4389;41.932;25.904;2023-04-22T11:35:01;8.17;;;3.83;;
8704;SDS011;4389;41.932;25.904;2023-04-22T11:37:30;8.00;;;4.17;;
8704;SDS011;4389;41.932;25.904;2023-04-22T11:39:58;8.37;;;3.47;;
8704;SDS011;4389;41.932;25.904;2023-04-22T11:42:25;9.50;;;3.50;;
8704;SDS011;4389;41.932;25.904;2023-04-22T11:44:52;5.60;;;3.83;;
8704;SDS011;4389;41.932;25.904;2023-04-22T11:47:19;4.87;;;4.17;;
8704;SDS011;4389;41.932;25.904;2023-04-22T11:49:55;8.30;;;3.50;;
8704;SDS011;4389;41.932;25.904;2023-04-22T11:52:23;10.70;;;3.17;;
8704;SDS011;4389;41.932;25.904;2023-04-22T11:54:51;5.73;;;2.70;;
8704;SDS011;4389;41.932;25.904;2023-04-22T11:57:18;6.33;;;3.30;;
8704;SDS011;4389;41.932;25.904;2023-04-22T11:59:55;8.93;;;3.00;;
8704;SDS011;4389;41.932;25.904;2023-04-22T12:02:23;5.57;;;3.13;;
8704;SDS011;4389;41.932;25.904;2023-04-22T12:04:50;7.83;;;2.60;;
8704;SDS011;4389;41.932;25.904;2023-04-22T12:07:17;11.33;;;2.70;;
8704;SDS011;4389;41.932;25.904;2023-04-22T12:09:44;5.83;;;3.20;;
8704;SDS011;4389;41.932;25.904;2023-04-22T12:12:12;4.53;;;2.60;;
8704;SDS011;4389;41.932;25.904;2023-04-22T12:14:40;6.57;;;2.80;;
8704;SDS011;4389;41.932;25.904;2023-04-22T12:17:11;6.53;;;2.80;;
8704;SDS011;4389;41.932;25.904;2023-04-22T12:19:38;3.90;;;2.43;;
8704;SDS011;4389;41.932;25.904;2023-04-22T12:22:05;6.27;;;2.80;;
8704;SDS011;4389;41.932;25.904;2023-04-22T12:24:32;6.43;;;2.60;;
8704;SDS011;4389;41.932;25.904;2023-04-22T12:26:59;4.57;;;2.87;;
8704;SDS011;4389;41.932;25.904;2023-04-22T12:29:30;7.03;;;2.63;;
8704;SDS011;4389;41.932;25.904;2023-04-22T12:31:58;3.60;;;2.70;;
8704;SDS011;4389;41.932;25.904;2023-04-22T12:34:25;7.77;;;2.83;;
8704;SDS011;4389;41.932;25.904;2023-04-22T12:36:52;6.60;;;2.77;;
8704;SDS011;4389;41.932;25.904;2023-04-22T12:39:20;5.60;;;2.40;;
8704;SDS011;4389;41.932;25.904;2023-04-22T12:41:47;6.97;;;2.70;;
8704;SDS011;4389;41.932;25.904;2023-04-22T12:44:15;6.57;;;2.63;;
8704;SDS011;4389;41.932;25.904;2023-04-22T12:46:43;6.57;;;2.90;;
8704;SDS011;4389;41.932;25.904;2023-04-22T12:49:10;7.13;;;3.10;;
8704;SDS011;4389;41.932;25.904;2023-04-22T12:51:39;7.20;;;2.97;;
8704;SDS011;4389;41.932;25.904;2023-04-22T12:54:06;5.13;;;3.10;;
8704;SDS011;4389;41.932;25.904;2023-04-22T12:56:32;7.20;;;4.87;;
8704;SDS011;4389;41.932;25.904;2023-04-22T12:58:59;4.37;;;2.80;;
8704;SDS011;4389;41.932;25.904;2023-04-22T13:01:27;7.00;;;3.10;;
8704;SDS011;4389;41.932;25.904;2023-04-22T13:03:55;8.87;;;5.30;;
8704;SDS011;4389;41.932;25.904;2023-04-22T13:06:22;11.20;;;4.23;;
8704;SDS011;4389;41.932;25.904;2023-04-22T13:08:49;6.27;;;2.67;;
8704;SDS011;4389;41.932;25.904;2023-04-22T13:11:17;7.50;;;3.30;;
8704;SDS011;4389;41.932;25.904;2023-04-22T13:13:44;7.47;;;4.40;;
8704;SDS011;4389;41.932;25.904;2023-04-22T13:16:10;12.80;;;3.53;;
8704;SDS011;4389;41.932;25.904;2023-04-22T13:18:37;5.87;;;3.23;;
8704;SDS011;4389;41.932;25.904;2023-04-22T13:21:05;7.70;;;2.93;;
8704;SDS011;4389;41.932;25.904;2023-04-22T13:23:32;4.73;;;2.20;;
8704;SDS011;4389;41.932;25.904;2023-04-22T13:25:59;4.40;;;2.53;;
8704;SDS011;4389;41.932;25.904;2023-04-22T13:28:27;5.63;;;2.87;;
8704;SDS011;4389;41.932;25.904;2023-04-22T13:30:54;7.67;;;2.70;;
8704;SDS011;4389;41.932;25.904;2023-04-22T13:33:21;5.83;;;2.73;;
8704;SDS011;4389;41.932;25.904;2023-04-22T13:35:48;4.00;;;2.60;;
8704;SDS011;4389;41.932;25.904;2023-04-22T13:38:16;5.00;;;3.20;;
8704;SDS011;4389;41.932;25.904;2023-04-22T13:40:43;5.17;;;2.50;;
8704;SDS011;4389;41.932;25.904;2023-04-22T13:43:10;5.77;;;2.37;;
8704;SDS011;4389;41.932;25.904;2023-04-22T13:45:37;10.00;;;2.70;;
8704;SDS011;4389;41.932;25.904;2023-04-22T13:48:04;7.37;;;2.87;;
8704;SDS011;4389;41.932;25.904;2023-04-22T13:50:31;6.90;;;2.97;;
8704;SDS011;4389;41.932;25.904;2023-04-22T13:52:58;6.53;;;2.93;;
8704;SDS011;4389;41.932;25.904;2023-04-22T13:55:26;7.97;;;3.90;;
8704;SDS011;4389;41.932;25.904;2023-04-22T13:57:53;5.80;;;2.73;;
8704;SDS011;4389;41.932;25.904;2023-04-22T14:00:20;9.47;;;2.90;;
8704;SDS011;4389;41.932;25.904;2023-04-22T14:02:46;5.03;;;2.77;;
8704;SDS011;4389;41.932;25.904;2023-04-22T14:05:13;5.70;;;2.40;;
8704;SDS011;4389;41.932;25.904;2023-04-22T14:07:40;4.33;;;2.47;;
8704;SDS011;4389;41.932;25.904;2023-04-22T14:10:07;11.93;;;3.30;;
8704;SDS011;4389;41.932;25.904;2023-04-22T14:12:37;7.00;;;2.57;;
8704;SDS011;4389;41.932;25.904;2023-04-22T14:15:05;5.43;;;3.10;;
8704;SDS011;4389;41.932;25.904;2023-04-22T14:17:34;6.37;;;3.13;;
8704;SDS011;4389;41.932;25.904;2023-04-22T14:20:02;8.17;;;3.50;;
8704;SDS011;4389;41.932;25.904;2023-04-22T14:22:29;5.57;;;3.10;;
8704;SDS011;4389;41.932;25.904;2023-04-22T14:24:56;10.77;;;3.70;;
8704;SDS011;4389;41.932;25.904;2023-04-22T14:27:24;12.37;;;4.63;;
8704;SDS011;4389;41.932;25.904;2023-04-22T14:29:52;13.70;;;5.20;;
8704;SDS011;4389;41.932;25.904;2023-04-22T14:32:19;11.50;;;7.43;;
8704;SDS011;4389;41.932;25.904;2023-04-22T14:34:46;13.53;;;5.83;;
8704;SDS011;4389;41.932;25.904;2023-04-22T14:37:13;11.20;;;6.63;;
8704;SDS011;4389;41.932;25.904;2023-04-22T14:39:40;6.73;;;4.00;;
8704;SDS011;4389;41.932;25.904;2023-04-22T14:42:06;5.30;;;3.20;;
8704;SDS011;4389;41.932;25.904;2023-04-22T14:44:33;7.20;;;4.33;;
8704;SDS011;4389;41.932;25.904;2023-04-22T14:47:01;5.67;;;3.73;;
8704;SDS011;4389;41.932;25.904;2023-04-22T14:49:28;8.73;;;4.90;;
8704;SDS011;4389;41.932;25.904;2023-04-22T14:51:55;6.07;;;3.90;;
8704;SDS011;4389;41.932;25.904;2023-04-22T14:54:25;9.80;;;3.33;;
8704;SDS011;4389;41.932;25.904;2023-04-22T14:56:52;8.63;;;4.00;;
8704;SDS011;4389;41.932;25.904;2023-04-22T14:59:20;5.93;;;3.80;;
8704;SDS011;4389;41.932;25.904;2023-04-22T15:01:47;5.17;;;4.40;;
8704;SDS011;4389;41.932;25.904;2023-04-22T15:04:16;5.80;;;3.20;;
8704;SDS011;4389;41.932;25.904;2023-04-22T15:06:43;9.10;;;3.00;;
8704;SDS011;4389;41.932;25.904;2023-04-22T15:09:10;12.20;;;7.20;;